117 Куст

Карта отелей и гостиниц, располагающихся рядом с аэропортом 117 Куст :

117 Куст Ямало-Ненецкий автономный округ 66° 50' 18.8988" N, 79° 36' 24.3612" E
117 Куст Ямало-Ненецкий автономный округ 66° 50' 18.8988" N, 79° 36' 24.3612" E
Код аэродрома ИКАО: 
HB66
Код аэродрома RU: 
ХБ66
Координаты: 
N66.83858° E079.60677°
Превышение над уровнем моря : 
40
Основная полоса: 
Курс магнитный: 
Длина основной ВПП: 
Ширина основной ВПП: 
Покрытие основной ВПП: 
Освещение ВПП: 
Тип: 
Вертодром
Класс аэродрома: 
Принадлежность: 
Статус: 
Недействующий
Сайт: 
E-mail аэродрома: 
Страна: 
Россия
Регион: 
Ямало-Ненецкий автономный округ
Город: 
Дополнительная информация: 

Найти трансфер

С помощью этой формы Вы можете найти трансфер из аэропорта 117 Куст в город, аэропорт или вокзал:

Карта места

Javascript is required to view this map.

Погода в аэропортах:

Авиационная погода в Бресте

Регион: 
Погода METAR: 
UMBB 270710Z 12007G10MPS 5000 BR OVC012CB 17/15 Q0998 NOSIG
Время наблюдения: 
2020-09-27T07:10:00Z
Температура C: 
17.0
Точка росы: 
15.0
Направление ветра: 
120
Скорость ветра (узлы): 
14
Метеорологическая видимость: 
3.11
Явления погоды: 
BR
Условия полета: 
MVFR
Аэропорт подробнее: 

Авиационная погода в Каяани

Регион: 
Погода METAR: 
EFKI 270720Z AUTO 09007KT 050V110 3900 BR OVC001 10/10 Q1022
Время наблюдения: 
2020-09-27T07:20:00Z
Температура C: 
10.0
Точка росы: 
10.0
Направление ветра: 
90
Скорость ветра (узлы): 
7
Метеорологическая видимость: 
2.42
Явления погоды: 
BR
Условия полета: 
LIFR

Авиационная погода в Минеральные Воды

Регион: 
Погода METAR: 
URMM 270730Z 11007MPS 9999 -DZ OVC009 18/15 Q1018 R12/090070 NOSIG RMK MT OBSC QFE735/0980
Время наблюдения: 
2020-09-27T07:30:00Z
Температура C: 
18.0
Точка росы: 
15.0
Направление ветра: 
110
Скорость ветра (узлы): 
14
Метеорологическая видимость: 
6.21
Явления погоды: 
-DZ
Условия полета: 
IFR
Аэропорт подробнее: 

Авиационная погода в Виннице

Регион: 
Погода METAR: 
UKWW 270730Z 15004MPS 9999 -SHRA BKN018CB 17/16 Q1002 NOSIG
Время наблюдения: 
2020-09-27T07:30:00Z
Температура C: 
17.0
Точка росы: 
16.0
Направление ветра: 
150
Скорость ветра (узлы): 
8
Метеорологическая видимость: 
6.21
Явления погоды: 
-SHRA
Условия полета: 
MVFR
Аэропорт подробнее: